Friday, April 18, 2014, 1:30 AM EDT

KLNS, Lancaster Airport

Location: Lititz, PA, United States Lat: 40.117
Local Time: 1:30 AM EDT ( 5:30 GMT) Lon: -76.3
Time Zone: US/Eastern Elev: 403 ft

Show me the last for .
Show Decoded

2014-04-18 00:53 METAR KLNS 180453Z AUTO 00000KT 10SM CLR 03/M02 A3060 RMK AO2 SLP365 T00281022
                 401171017 =
2014-04-17 23:53 METAR KLNS 180353Z AUTO 15004KT 10SM CLR 02/M02 A3059 RMK AO2 SLP361 T00171022 =
2014-04-17 22:53 METAR KLNS 180253Z AUTO 14005KT 10SM CLR 03/M02 A3057 RMK AO2 SLP357 T00281017
                 50008 =
2014-04-17 21:53 METAR KLNS 180153Z 14008KT 10SM CLR 04/M01 A3058 RMK AO2 SLP358 T00391011 =
2014-04-17 20:53 METAR KLNS 180053Z 12009KT 10SM CLR 06/M01 A3056 RMK AO2 SLP353 T00561011 =
2014-04-17 19:53 METAR KLNS 172353Z 13011KT 10SM CLR 08/M01 A3055 RMK AO2 SLP349 T00781011 10117
                 20078 55002 =
2014-04-17 18:53 METAR KLNS 172253Z 12011KT 10SM CLR 10/M01 A3055 RMK AO2 SLP348 T01001006 =
2014-04-17 17:53 METAR KLNS 172153Z 12009KT 10SM CLR 11/M02 A3056 RMK AO2 SLP350 T01111017 =
2014-04-17 16:53 METAR KLNS 172053Z 15010KT 10SM CLR 11/M02 A3056 RMK AO2 SLP351 T01111017 56021
                 =
2014-04-17 15:53 METAR KLNS 171953Z 12013KT 10SM CLR 12/M01 A3057 RMK AO2 SLP354 T01171011 =
2014-04-17 14:53 METAR KLNS 171853Z 12010KT 10SM SCT047 10/M01 A3060 RMK AO2 SLP365 T01001011 =
2014-04-17 13:53 METAR KLNS 171753Z 13007KT 100V180 10SM SCT045 09/M01 A3062 RMK AO2 SLP372
                 T00941011 10106 20017 58016 =
2014-04-17 12:53 METAR KLNS 171653Z 12008KT 10SM BKN042 08/M02 A3064 RMK AO2 SLP378 T00831017 =
2014-04-17 11:53 METAR KLNS 171553Z 15009KT 10SM CLR 08/M01 A3065 RMK AO2 SLP383 T00831011 =
2014-04-17 10:53 METAR KLNS 171453Z 13011G21KT 10SM CLR 07/M02 A3067 RMK AO2 SLP388 T00721022
                 51008 =
2014-04-17 09:53 METAR KLNS 171353Z 13012KT 10SM CLR 06/M02 A3066 RMK AO2 SLP386 T00561017 =
2014-04-17 08:53 METAR KLNS 171253Z 10010KT 10SM CLR 04/M04 A3065 RMK AO2 SLP384 T00391044 =
2014-04-17 07:53 METAR KLNS 171153Z 09008KT 10SM CLR 02/M06 A3064 RMK AO2 SLP380 T00171061 10017
                 21017 53023 =
2014-04-17 06:53 METAR KLNS 171053Z 06004KT 10SM CLR M01/M06 A3062 RMK AO2 SLP373 T10111061 =
2014-04-17 05:53 METAR KLNS 170953Z 12005KT 10SM CLR M01/M07 A3059 RMK AO2 SLP363 T10111072 =
2014-04-17 04:53 METAR KLNS 170853Z 07006KT 10SM CLR M01/M07 A3057 RMK AO2 SLP356 T10111072 53001
                 =
2014-04-17 03:53 METAR KLNS 170753Z 08004KT 10SM CLR M01/M07 A3057 RMK AO2 SLP356 T10061072 =
2014-04-17 02:53 METAR KLNS 170653Z 04003KT 10SM CLR 01/M07 A3056 RMK AO2 SLP353 T00061072 =
2014-04-17 01:53 METAR KLNS 170553Z 07004KT 10SM CLR 01/M07 A3057 RMK AO2 SLP355 T00061072 10050
                 20000 53012 =

Support USWX by starting your Amazon purchase here.